createdAt,value
2018-08-12T00:00:28.070Z,15.90
2018-08-12T00:02:57.907Z,15.81
2018-08-12T00:05:26.856Z,15.68
2018-08-12T00:07:56.251Z,15.55
2018-08-12T00:10:26.239Z,15.77
2018-08-12T00:12:54.957Z,15.77
2018-08-12T00:15:24.261Z,15.80
2018-08-12T00:17:53.075Z,15.80
2018-08-12T00:20:23.072Z,15.77
2018-08-12T00:22:52.111Z,15.70
2018-08-12T00:25:23.310Z,15.82
2018-08-12T00:27:52.172Z,15.77
2018-08-12T00:30:21.104Z,15.68
2018-08-12T00:32:49.813Z,15.70
2018-08-12T00:35:19.523Z,15.56
2018-08-12T00:37:48.203Z,15.61
2018-08-12T00:40:17.915Z,15.59
2018-08-12T00:42:47.618Z,15.49
2018-08-12T00:45:18.784Z,15.44
2018-08-12T00:47:48.120Z,15.53
2018-08-12T00:50:17.635Z,15.45
2018-08-12T00:52:46.475Z,15.37
2018-08-12T00:55:17.690Z,15.42
2018-08-12T00:57:47.275Z,15.33
2018-08-12T01:00:18.252Z,15.29
2018-08-12T01:02:46.939Z,15.30
2018-08-12T01:05:16.961Z,15.26
2018-08-12T01:07:46.753Z,15.24
2018-08-12T01:10:15.936Z,15.11
2018-08-12T01:12:44.915Z,14.95
2018-08-12T01:15:16.157Z,14.97
2018-08-12T01:17:45.474Z,15.07
2018-08-12T01:20:21.001Z,15.05
2018-08-12T01:22:49.944Z,14.92
2018-08-12T01:25:18.597Z,14.90
2018-08-12T01:27:47.299Z,14.94
2018-08-12T01:30:18.939Z,14.85
2018-08-12T01:32:48.219Z,14.79
2018-08-12T01:35:17.431Z,14.79
2018-08-12T01:37:46.765Z,14.84
2018-08-12T01:40:16.504Z,14.79
2018-08-12T01:42:45.646Z,14.75
2018-08-12T01:45:16.850Z,14.60
2018-08-12T01:47:45.627Z,14.67
2018-08-12T01:50:15.889Z,14.55
2018-08-12T01:52:45.035Z,14.43
2018-08-12T01:55:13.724Z,14.48
2018-08-12T01:57:42.431Z,14.44
2018-08-12T02:00:17.040Z,14.48
2018-08-12T02:02:46.497Z,14.50
2018-08-12T02:05:15.380Z,14.31
2018-08-12T02:07:44.552Z,14.35
2018-08-12T02:10:13.261Z,14.30
2018-08-12T02:12:41.947Z,14.42
2018-08-12T02:15:11.903Z,14.39
2018-08-12T02:17:42.112Z,14.28
2018-08-12T02:20:12.163Z,14.21
2018-08-12T02:22:42.102Z,14.22
2018-08-12T02:25:11.445Z,14.25
2018-08-12T02:27:40.133Z,14.15
2018-08-12T02:30:10.780Z,14.19
2018-08-12T02:32:48.783Z,14.13
2018-08-12T02:35:17.465Z,14.08
2018-08-12T02:37:46.364Z,14.06
2018-08-12T02:40:14.995Z,14.01
2018-08-12T02:42:43.706Z,14.05
2018-08-12T02:45:15.153Z,13.95
2018-08-12T02:47:44.207Z,13.86
2018-08-12T02:50:12.859Z,13.86
2018-08-12T02:52:41.599Z,13.85
2018-08-12T02:55:11.814Z,13.64
2018-08-12T02:57:41.623Z,13.60
2018-08-12T03:00:12.495Z,13.53
2018-08-12T03:02:41.156Z,13.58
2018-08-12T03:05:09.891Z,13.37
2018-08-12T03:07:38.797Z,13.38
2018-08-12T03:10:08.191Z,13.28
2018-08-12T03:12:37.150Z,13.39
2018-08-12T03:15:07.895Z,13.50
2018-08-12T03:17:36.966Z,13.40
2018-08-12T03:20:07.155Z,13.38
2018-08-12T03:22:36.052Z,13.24
2018-08-12T03:25:05.580Z,13.28
2018-08-12T03:27:53.362Z,13.24
2018-08-12T03:30:35.843Z,13.14
2018-08-12T03:33:17.993Z,13.23
2018-08-12T03:35:47.027Z,13.34
2018-08-12T03:38:15.717Z,13.45
2018-08-12T03:40:44.467Z,13.34
2018-08-12T03:43:13.084Z,13.16
2018-08-12T03:45:41.784Z,13.24
2018-08-12T03:48:10.471Z,13.39
2018-08-12T03:51:03.675Z,13.45
2018-08-12T03:53:54.162Z,13.26
2018-08-12T03:56:23.628Z,13.29
2018-08-12T03:58:52.227Z,13.11
2018-08-12T04:01:20.872Z,12.99
2018-08-12T04:03:49.484Z,13.17
2018-08-12T04:06:18.375Z,13.33
2018-08-12T04:08:47.011Z,13.23
2018-08-12T04:11:16.162Z,13.20
2018-08-12T04:13:44.867Z,12.92
2018-08-12T04:16:13.578Z,13.11
2018-08-12T04:18:42.308Z,13.12
2018-08-12T04:21:11.368Z,13.23
2018-08-12T04:23:40.503Z,13.25
2018-08-12T04:26:09.508Z,13.26
2018-08-12T04:28:38.258Z,13.20
2018-08-12T04:31:06.932Z,13.07
2018-08-12T04:33:35.555Z,13.22
2018-08-12T04:36:04.232Z,13.26
2018-08-12T04:38:32.858Z,13.25
2018-08-12T04:41:01.559Z,13.35
2018-08-12T04:43:30.231Z,13.34
2018-08-12T04:45:58.969Z,13.34
2018-08-12T04:48:27.691Z,13.31
2018-08-12T04:50:56.320Z,13.33
2018-08-12T04:53:24.895Z,13.36
2018-08-12T04:55:53.634Z,13.26
2018-08-12T04:58:22.387Z,13.22
2018-08-12T05:00:51.130Z,13.25
2018-08-12T05:03:19.999Z,13.35
2018-08-12T05:05:48.812Z,13.50
2018-08-12T05:08:17.429Z,13.45
2018-08-12T05:10:46.344Z,13.53
2018-08-12T05:13:15.066Z,13.64
2018-08-12T05:15:43.800Z,13.66
2018-08-12T05:18:12.730Z,13.82
2018-08-12T05:20:41.619Z,13.91
2018-08-12T05:23:10.367Z,13.88
2018-08-12T05:25:39.307Z,14.00
2018-08-12T05:28:08.072Z,14.16
2018-08-12T05:30:36.632Z,14.38
2018-08-12T05:33:05.667Z,14.40
2018-08-12T05:35:34.339Z,14.35
2018-08-12T05:38:03.218Z,14.46
2018-08-12T05:40:32.029Z,14.44
2018-08-12T05:43:00.686Z,14.46
2018-08-12T05:45:29.350Z,14.59
2018-08-12T05:47:58.244Z,14.72
2018-08-12T05:50:26.931Z,14.68
2018-08-12T05:52:55.615Z,14.62
2018-08-12T05:55:24.599Z,15.04
2018-08-12T05:57:53.774Z,14.93
2018-08-12T06:00:22.398Z,15.12
2018-08-12T06:02:51.306Z,15.41
2018-08-12T06:05:20.039Z,15.48
2018-08-12T06:07:50.165Z,15.68
2018-08-12T06:10:19.888Z,15.90
2018-08-12T06:12:48.792Z,16.13
2018-08-12T06:15:19.195Z,16.22
2018-08-12T06:17:47.924Z,16.28
2018-08-12T06:20:16.707Z,16.36
2018-08-12T06:22:46.047Z,16.78
2018-08-12T06:25:15.933Z,17.11
2018-08-12T06:27:44.607Z,17.44
2018-08-12T06:30:18.021Z,17.74
2018-08-12T06:32:47.036Z,18.14
2018-08-12T06:35:15.684Z,18.21
2018-08-12T06:37:44.706Z,18.81
2018-08-12T06:40:14.915Z,19.59
2018-08-12T06:42:44.875Z,20.09
2018-08-12T06:45:14.865Z,20.49
2018-08-12T06:47:44.547Z,21.09
2018-08-12T06:50:13.376Z,21.24
2018-08-12T06:52:42.373Z,22.00
2018-08-12T06:55:13.292Z,21.98
2018-08-12T06:57:42.803Z,22.82
2018-08-12T07:00:13.215Z,22.93
2018-08-12T07:02:42.005Z,23.12
2018-08-12T07:05:11.471Z,22.71
2018-08-12T07:07:40.228Z,22.82
2018-08-12T07:10:15.721Z,23.18
2018-08-12T07:12:48.328Z,24.09
2018-08-12T07:15:19.697Z,24.87
2018-08-12T07:17:49.941Z,25.36
2018-08-12T07:20:21.139Z,25.63
2018-08-12T07:22:53.344Z,26.20
2018-08-12T07:25:23.030Z,26.68
2018-08-12T07:27:53.326Z,27.02
2018-08-12T07:30:27.527Z,27.38
2018-08-12T07:33:01.799Z,27.44
2018-08-12T07:35:34.913Z,27.89
2018-08-12T07:38:06.066Z,28.30
2018-08-12T07:40:37.092Z,27.64
2018-08-12T07:43:08.486Z,27.13
2018-08-12T07:45:39.012Z,27.03
2018-08-12T07:48:11.891Z,26.70
2018-08-12T07:50:41.716Z,27.05
2018-08-12T07:53:15.032Z,27.61
2018-08-12T07:55:48.028Z,28.14
2018-08-12T07:58:18.444Z,28.85
2018-08-12T08:00:49.845Z,29.22
2018-08-12T08:03:23.343Z,29.74
2018-08-12T08:05:53.995Z,29.02
2018-08-12T08:08:26.844Z,28.42
2018-08-12T08:11:00.399Z,28.57
2018-08-12T08:13:29.324Z,28.96
2018-08-12T08:15:57.925Z,29.96
2018-08-12T08:18:26.559Z,29.39
2018-08-12T08:20:55.229Z,29.51
2018-08-12T08:23:23.903Z,29.94
2018-08-12T08:25:52.651Z,29.27
2018-08-12T08:28:23.574Z,29.21
2018-08-12T08:30:53.267Z,29.99
2018-08-12T08:33:25.203Z,30.79
2018-08-12T08:35:58.239Z,31.12
2018-08-12T08:38:29.417Z,31.13
2018-08-12T08:41:01.767Z,31.27
2018-08-12T08:43:33.188Z,31.30
2018-08-12T08:46:06.614Z,31.89
2018-08-12T08:48:38.903Z,32.43
2018-08-12T08:51:07.629Z,32.40
2018-08-12T08:53:37.056Z,32.52
2018-08-12T08:56:05.895Z,31.68
2018-08-12T08:58:34.467Z,32.97
2018-08-12T09:01:03.928Z,32.52
2018-08-12T09:03:32.652Z,33.24
2018-08-12T09:06:01.536Z,33.09
2018-08-12T09:08:30.323Z,33.45
2018-08-12T09:10:58.877Z,34.35
2018-08-12T09:13:28.003Z,33.85
2018-08-12T09:15:56.799Z,33.40
2018-08-12T09:18:25.632Z,33.98
2018-08-12T09:21:01.394Z,35.26
2018-08-12T09:23:43.701Z,34.45
2018-08-12T09:26:14.914Z,35.45
2018-08-12T09:28:47.219Z,36.37
2018-08-12T09:31:16.788Z,37.25
2018-08-12T09:33:57.405Z,38.51
2018-08-12T09:36:35.658Z,37.02
2018-08-12T09:39:07.838Z,36.43
2018-08-12T09:41:47.170Z,36.17
2018-08-12T09:44:17.119Z,38.07
2018-08-12T09:46:46.348Z,37.59
2018-08-12T09:49:20.396Z,36.71
2018-08-12T09:51:51.965Z,38.14
2018-08-12T09:54:21.566Z,38.29
2018-08-12T09:56:51.173Z,39.41
2018-08-12T09:59:20.234Z,38.77
2018-08-12T10:01:56.582Z,39.05
2018-08-12T10:04:25.903Z,39.17
2018-08-12T10:06:54.563Z,39.33
2018-08-12T10:09:23.204Z,40.17
2018-08-12T10:11:51.872Z,38.10
2018-08-12T10:14:20.555Z,38.64
2018-08-12T10:16:49.235Z,40.61
2018-08-12T10:19:17.991Z,40.93
2018-08-12T10:21:46.752Z,39.59
2018-08-12T10:24:15.400Z,40.07
2018-08-12T10:26:44.111Z,39.80
2018-08-12T10:29:13.057Z,41.10
2018-08-12T10:31:41.588Z,42.10
2018-08-12T10:34:10.231Z,42.20
2018-08-12T10:36:39.063Z,43.18
2018-08-12T10:39:08.789Z,44.06
2018-08-12T10:41:37.412Z,44.24
2018-08-12T10:44:06.403Z,43.49
2018-08-12T10:46:34.960Z,42.00
2018-08-12T10:49:03.524Z,42.85
2018-08-12T10:51:32.429Z,42.85
2018-08-12T10:54:01.427Z,41.94
2018-08-12T10:56:30.133Z,43.01
2018-08-12T10:58:59.192Z,43.79
2018-08-12T11:01:40.155Z,43.32
2018-08-12T11:04:29.359Z,41.82
2018-08-12T11:07:04.852Z,43.98
2018-08-12T11:09:44.636Z,44.52
2018-08-12T11:12:35.448Z,44.92
2018-08-12T11:15:11.577Z,45.44
2018-08-12T11:17:51.347Z,46.39
2018-08-12T11:20:41.582Z,47.83
2018-08-12T11:23:24.232Z,44.70
2018-08-12T11:26:00.400Z,44.80
2018-08-12T11:28:41.143Z,46.13
2018-08-12T11:31:28.707Z,45.68
2018-08-12T11:34:11.392Z,42.90
2018-08-12T11:36:40.725Z,43.16
2018-08-12T11:39:22.513Z,44.07
2018-08-12T11:42:03.267Z,45.93
2018-08-12T11:44:32.120Z,46.36
2018-08-12T11:47:00.964Z,45.98
2018-08-12T11:49:29.751Z,46.53
2018-08-12T11:51:58.437Z,44.19
2018-08-12T11:54:27.405Z,44.18
2018-08-12T11:56:56.210Z,44.30
2018-08-12T11:59:24.819Z,41.54
2018-08-12T12:01:53.901Z,43.00
2018-08-12T12:04:22.816Z,43.18
2018-08-12T12:06:51.403Z,44.08
2018-08-12T12:09:20.611Z,43.79
2018-08-12T12:11:49.158Z,44.18
2018-08-12T12:14:17.742Z,43.45
2018-08-12T12:16:46.703Z,44.98
2018-08-12T12:19:15.579Z,45.36
2018-08-12T12:21:44.526Z,44.36
2018-08-12T12:24:13.233Z,45.25
2018-08-12T12:26:41.953Z,44.48
2018-08-12T12:29:10.722Z,46.13
2018-08-12T12:31:39.639Z,46.76
2018-08-12T12:34:08.936Z,45.83
2018-08-12T12:36:37.541Z,45.14
2018-08-12T12:39:08.824Z,42.55
2018-08-12T12:41:37.409Z,44.43
2018-08-12T12:44:06.607Z,46.48
2018-08-12T12:46:35.974Z,43.62
2018-08-12T12:49:04.603Z,43.68
2018-08-12T12:51:33.328Z,45.72
2018-08-12T12:54:02.350Z,45.83
2018-08-12T12:56:31.129Z,45.52
2018-08-12T12:58:59.989Z,45.08
2018-08-12T13:01:28.574Z,42.68
2018-08-12T13:03:57.140Z,43.54
2018-08-12T13:06:25.727Z,43.78
2018-08-12T13:08:54.536Z,45.24
2018-08-12T13:11:23.311Z,45.48
2018-08-12T13:13:52.028Z,43.26
2018-08-12T13:16:20.912Z,44.18
2018-08-12T13:18:49.696Z,41.90
2018-08-12T13:21:18.295Z,42.66
2018-08-12T13:23:47.110Z,43.26
2018-08-12T13:26:15.819Z,42.44
2018-08-12T13:28:44.759Z,40.73
2018-08-12T13:31:13.725Z,43.01
2018-08-12T13:33:42.399Z,42.13
2018-08-12T13:36:11.158Z,41.39
2018-08-12T13:38:40.030Z,42.87
2018-08-12T13:41:08.747Z,42.14
2018-08-12T13:43:37.727Z,41.70
2018-08-12T13:46:06.807Z,40.65
2018-08-12T13:48:35.343Z,40.98
2018-08-12T13:51:04.120Z,38.78
2018-08-12T13:53:33.137Z,39.91
2018-08-12T13:56:01.948Z,41.35
2018-08-12T13:58:30.540Z,41.66
2018-08-12T14:01:00.386Z,42.02
2018-08-12T14:03:30.070Z,43.46
2018-08-12T14:05:59.010Z,41.94
2018-08-12T14:08:28.178Z,42.83
2018-08-12T14:11:14.046Z,42.61
2018-08-12T14:14:02.286Z,42.26
2018-08-12T14:16:48.455Z,43.11
2018-08-12T14:19:37.999Z,42.73
2018-08-12T14:22:21.878Z,42.75
2018-08-12T14:25:09.355Z,42.28
2018-08-12T14:27:54.452Z,42.04
2018-08-12T14:30:38.262Z,43.02
2018-08-12T14:33:15.118Z,43.19
2018-08-12T14:35:50.442Z,43.37
2018-08-12T14:38:30.348Z,44.09
2018-08-12T14:40:59.810Z,44.62
2018-08-12T14:43:28.661Z,44.66
2018-08-12T14:45:57.225Z,44.22
2018-08-12T14:48:25.821Z,43.08
2018-08-12T14:50:54.386Z,42.39
2018-08-12T14:53:23.152Z,42.61
2018-08-12T14:55:51.879Z,41.78
2018-08-12T14:58:20.779Z,41.53
2018-08-12T15:00:49.571Z,41.85
2018-08-12T15:03:18.455Z,42.19
2018-08-12T15:05:47.165Z,42.15
2018-08-12T15:08:16.063Z,42.50
2018-08-12T15:10:44.834Z,42.24
2018-08-12T15:13:13.465Z,40.45
2018-08-12T15:15:42.244Z,40.08
2018-08-12T15:18:11.091Z,39.30
2018-08-12T15:20:39.755Z,39.39
2018-08-12T15:23:08.422Z,38.31
2018-08-12T15:25:37.127Z,37.27
2018-08-12T15:28:05.972Z,36.48
2018-08-12T15:30:34.766Z,36.16
2018-08-12T15:33:03.508Z,35.29
2018-08-12T15:35:32.160Z,34.34
2018-08-12T15:38:00.948Z,33.41
2018-08-12T15:40:30.033Z,33.24
2018-08-12T15:42:58.711Z,33.35
2018-08-12T15:45:27.562Z,33.44
2018-08-12T15:47:56.331Z,33.54
2018-08-12T15:50:24.984Z,33.63
2018-08-12T15:52:53.631Z,33.50
2018-08-12T15:55:22.601Z,33.41
2018-08-12T15:57:51.310Z,33.43
2018-08-12T16:00:21.366Z,33.20
2018-08-12T16:02:50.216Z,33.05
2018-08-12T16:05:19.978Z,32.87
2018-08-12T16:07:49.828Z,32.86
2018-08-12T16:10:22.429Z,32.69
2018-08-12T16:12:52.619Z,32.69
2018-08-12T16:15:21.828Z,32.58
2018-08-12T16:17:50.576Z,32.29
2018-08-12T16:20:19.633Z,32.28
2018-08-12T16:22:48.370Z,32.16
2018-08-12T16:25:18.596Z,31.80
2018-08-12T16:27:47.268Z,32.01
2018-08-12T16:30:16.959Z,32.01
2018-08-12T16:32:45.816Z,31.89
2018-08-12T16:35:15.586Z,31.76
2018-08-12T16:37:44.999Z,31.69
2018-08-12T16:40:16.140Z,31.49
2018-08-12T16:42:45.475Z,31.47
2018-08-12T16:45:29.665Z,31.40
2018-08-12T16:48:19.083Z,31.36
2018-08-12T16:51:06.022Z,31.27
2018-08-12T16:53:49.326Z,31.18
2018-08-12T16:56:32.870Z,30.95
2018-08-12T16:59:20.424Z,30.86
2018-08-12T17:02:05.388Z,30.88
2018-08-12T17:04:50.069Z,30.87
2018-08-12T17:07:20.467Z,30.85
2018-08-12T17:09:49.440Z,30.69
2018-08-12T17:12:17.996Z,30.59
2018-08-12T17:14:46.666Z,30.57
2018-08-12T17:17:15.313Z,30.43
2018-08-12T17:19:43.908Z,30.31
2018-08-12T17:22:16.104Z,30.29
2018-08-12T17:24:44.769Z,30.23
2018-08-12T17:27:14.382Z,30.11
2018-08-12T17:29:43.107Z,30.04
2018-08-12T17:32:11.851Z,29.98
2018-08-12T17:34:40.455Z,29.92
2018-08-12T17:37:09.163Z,29.71
2018-08-12T17:39:37.825Z,29.78
2018-08-12T17:42:06.483Z,29.66
2018-08-12T17:44:35.227Z,29.59
2018-08-12T17:47:03.919Z,29.46
2018-08-12T17:49:32.583Z,29.43
2018-08-12T17:52:01.324Z,29.32
2018-08-12T17:54:29.925Z,29.18
2018-08-12T17:56:58.504Z,29.01
2018-08-12T17:59:27.367Z,28.96
2018-08-12T18:01:56.109Z,28.80
2018-08-12T18:04:24.920Z,28.79
2018-08-12T18:06:53.680Z,28.62
2018-08-12T18:09:22.439Z,28.56
2018-08-12T18:11:51.028Z,28.48
2018-08-12T18:14:19.651Z,28.38
2018-08-12T18:16:48.315Z,28.29
2018-08-12T18:19:18.179Z,28.19
2018-08-12T18:21:47.272Z,28.13
2018-08-12T18:24:17.118Z,28.01
2018-08-12T18:26:46.473Z,27.88
2018-08-12T18:29:15.563Z,27.76
2018-08-12T18:31:44.372Z,27.65
2018-08-12T18:34:12.928Z,27.52
2018-08-12T18:36:41.569Z,27.35
2018-08-12T18:39:11.959Z,27.23
2018-08-12T18:41:40.935Z,27.09
2018-08-12T18:44:10.217Z,26.96
2018-08-12T18:46:39.047Z,26.89
2018-08-12T18:49:07.689Z,26.83
2018-08-12T18:51:36.412Z,26.73
2018-08-12T18:54:05.288Z,26.61
2018-08-12T18:56:33.936Z,26.52
2018-08-12T18:59:02.627Z,26.44
2018-08-12T19:01:31.264Z,26.36
2018-08-12T19:04:00.035Z,26.29
2018-08-12T19:06:28.827Z,26.20
2018-08-12T19:08:57.992Z,26.21
2018-08-12T19:11:26.832Z,26.07
2018-08-12T19:13:55.493Z,25.91
2018-08-12T19:16:24.151Z,25.77
2018-08-12T19:18:52.972Z,25.69
2018-08-12T19:21:21.671Z,25.59
2018-08-12T19:23:50.399Z,25.51
2018-08-12T19:26:19.155Z,25.42
2018-08-12T19:28:47.855Z,25.38
2018-08-12T19:31:16.589Z,25.34
2018-08-12T19:33:45.252Z,25.28
2018-08-12T19:36:13.819Z,25.27
2018-08-12T19:38:42.659Z,25.18
2018-08-12T19:41:11.486Z,25.10
2018-08-12T19:43:40.283Z,25.06
2018-08-12T19:46:08.931Z,24.99
2018-08-12T19:48:37.691Z,24.92
2018-08-12T19:51:06.792Z,24.85
2018-08-12T19:53:36.097Z,24.81
2018-08-12T19:56:04.871Z,24.80
2018-08-12T19:58:33.880Z,24.75
2018-08-12T20:01:02.779Z,24.74
2018-08-12T20:03:31.492Z,24.63
2018-08-12T20:06:00.107Z,24.50
2018-08-12T20:08:28.710Z,24.46
2018-08-12T20:10:57.254Z,24.35
2018-08-12T20:13:25.968Z,24.31
2018-08-12T20:15:54.888Z,24.27
2018-08-12T20:18:23.545Z,24.21
2018-08-12T20:20:52.119Z,24.27
2018-08-12T20:23:20.842Z,24.28
2018-08-12T20:25:49.555Z,24.20
2018-08-12T20:28:18.196Z,24.02
2018-08-12T20:30:47.107Z,23.88
2018-08-12T20:33:15.819Z,23.79
2018-08-12T20:35:44.435Z,23.73
2018-08-12T20:38:13.372Z,23.65
2018-08-12T20:40:42.168Z,23.60
2018-08-12T20:43:10.803Z,23.45
2018-08-12T20:45:39.860Z,23.44
2018-08-12T20:48:08.725Z,23.36
2018-08-12T20:50:37.479Z,23.30
2018-08-12T20:53:06.410Z,23.19
2018-08-12T20:55:35.016Z,23.08
2018-08-12T20:58:03.694Z,23.06
2018-08-12T21:00:32.563Z,22.98
2018-08-12T21:03:01.258Z,22.88
2018-08-12T21:05:29.907Z,22.73
2018-08-12T21:07:58.825Z,22.69
2018-08-12T21:10:27.562Z,22.61
2018-08-12T21:12:59.863Z,22.58
2018-08-12T21:15:30.351Z,22.45
2018-08-12T21:17:59.207Z,22.26
2018-08-12T21:20:28.075Z,22.27
2018-08-12T21:22:57.367Z,22.19
2018-08-12T21:25:26.958Z,21.99
2018-08-12T21:27:55.847Z,21.99
2018-08-12T21:30:25.176Z,21.90
2018-08-12T21:32:54.377Z,21.84
2018-08-12T21:35:23.241Z,21.67
2018-08-12T21:37:52.491Z,21.69
2018-08-12T21:40:21.170Z,21.64
2018-08-12T21:42:50.263Z,21.49
2018-08-12T21:45:19.784Z,21.58
2018-08-12T21:47:48.393Z,21.50
2018-08-12T21:50:17.366Z,21.39
2018-08-12T21:52:47.032Z,21.46
2018-08-12T21:55:16.181Z,21.59
2018-08-12T21:57:44.915Z,21.55
2018-08-12T22:00:15.476Z,21.58
2018-08-12T22:02:45.503Z,21.49
2018-08-12T22:05:14.195Z,21.57
2018-08-12T22:07:43.331Z,21.37
2018-08-12T22:10:12.636Z,21.21
2018-08-12T22:12:41.563Z,21.17
2018-08-12T22:15:10.570Z,21.19
2018-08-12T22:17:39.464Z,21.00
2018-08-12T22:20:08.040Z,20.97
2018-08-12T22:22:39.331Z,20.97
2018-08-12T22:25:08.220Z,21.01
2018-08-12T22:27:37.058Z,21.12
2018-08-12T22:30:07.952Z,21.03
2018-08-12T22:32:37.047Z,21.01
2018-08-12T22:35:05.996Z,21.03
2018-08-12T22:37:34.667Z,21.00
2018-08-12T22:40:03.423Z,20.93
2018-08-12T22:42:32.864Z,20.77
2018-08-12T22:45:02.120Z,20.85
2018-08-12T22:47:31.052Z,20.67
2018-08-12T22:49:59.707Z,20.71
2018-08-12T22:52:29.379Z,20.67
2018-08-12T22:55:00.097Z,20.67
2018-08-12T22:57:29.806Z,20.51
2018-08-12T22:59:59.227Z,20.55
2018-08-12T23:02:28.528Z,20.49
2018-08-12T23:04:57.563Z,20.38
2018-08-12T23:07:26.740Z,20.27
2018-08-12T23:09:56.375Z,20.20
2018-08-12T23:12:25.782Z,20.11
2018-08-12T23:15:00.033Z,20.07
2018-08-12T23:17:30.697Z,19.95
2018-08-12T23:20:00.261Z,19.90
2018-08-12T23:22:29.762Z,19.67
2018-08-12T23:24:58.839Z,19.66
2018-08-12T23:27:28.456Z,19.63
2018-08-12T23:29:57.864Z,19.62
2018-08-12T23:32:27.263Z,19.58
2018-08-12T23:34:56.859Z,19.51
2018-08-12T23:37:26.200Z,19.49
2018-08-12T23:39:55.581Z,19.55
2018-08-12T23:42:24.466Z,19.48
2018-08-12T23:44:53.212Z,19.48
2018-08-12T23:47:21.989Z,19.43
2018-08-12T23:49:50.888Z,19.51
2018-08-12T23:52:19.683Z,19.25
2018-08-12T23:54:48.360Z,19.23
2018-08-12T23:57:17.193Z,19.15
2018-08-12T23:59:45.803Z,19.14
